Asbury, NJ

8:58 AM EDT on October 30, 2014 (GMT -0400)
Bellwood Park Road | Change Station
CLOSE
Current Station
Personal Weather Station
Location: Asbury, NJ
Elevation: 745 ft
Nearby Weather Stations

Elev 745 ft 40.64 °N, 75.03 °W | Updated 5 minutes ago

Partly Cloudy
Partly Cloudy
41.2 °F
Feels Like 41 °F
N
0.0
Wind Variable Wind from East

Today
High -- | Low -- °F
--% Chance of Precip.
Yesterday
High -- | Low -- °F
Precip. -- in
7:27 AM 5:58 PM
Waxing Crescent, 43% visible
Pressure 29.99 in
Visibility 0.2 miles
Clouds
Windchill 41 °F
Dew Point 38 °F
Humidity 87%
Rainfall 0.00 in
Snow Depth Not available.
UV Not available.
Pollen .60 out of 12
Air Quality Not available.
Flu Activity Not available.
METAR KSMQ 301153Z AUTO 00000KT M1/4SM FG VV003 06/05 A2999 RMK AO2 SLP156 70010 T00560050 10072 20056 53014

More Conditions Fewer Conditions

Pressure 29.99 in
Visibility 0.2 miles
Clouds
Windchill 41 °F
Dew Point 38 °F
Humidity 87%
Rainfall 0.00 in
Snow Depth Not available.
UV Not available.
Pollen .60 out of 12
Air Quality Not available.
Flu Activity Not available.
METAR KSMQ 301153Z AUTO 00000KT M1/4SM FG VV003 06/05 A2999 RMK AO2 SLP156 70010 T00560050 10072 20056 53014

More Conditions Fewer Conditions

Nowcast | as of 7:58 am EDT on October 30, 2014

Patchy dense fog will continue to burn off as the morning wears on. Some areas may still see reduced visibilities under a half mile for a time this morning before conditions improve by late morning. Motorists should exercise caution for rapidly changing visibilities. Please allow extra time to reach your destination and use low beam headlights.

×

10-Day Weather Forecast

Almanac

Astronomy

Oct. 30, 2014 Rise Set
Actual Time
Civil Twilight
Nautical Twilight
Astronomical Twilight
Moon
Length of Visible Light
Length of Day
Tomorrow will be .
, % of the Moon is Illuminated

Today's Extremes

State Highs State Lows

Community

WunderPhotos

Upload Photos

1,766,353 photos uploaded!

WunderBlogs® & News

Nearby

Air Quality

  Air Quality AQ Index Pollutant
Not available.

Snow Depth

Station Depth Elevation

Earthquake Activity

City Distance Mag. Time & Date
Minimum magnitude displayed is 2.5.

Coastal Water Temperatures

Place Temperature

Nearby Weather Stations